sensor_id;sensor_type;location;lat;lon;timestamp;P1;durP1;ratioP1;P2;durP2;ratioP2
64500;SDS011;50874;24.150;-110.320;2024-01-30T00:00:24;19.42;;;2.50;;
64500;SDS011;50874;24.150;-110.320;2024-01-30T00:02:50;24.10;;;3.25;;
64500;SDS011;50874;24.150;-110.320;2024-01-30T00:05:17;21.27;;;2.85;;
64500;SDS011;50874;24.150;-110.320;2024-01-30T00:07:43;24.75;;;3.15;;
64500;SDS011;50874;24.150;-110.320;2024-01-30T00:10:10;16.35;;;2.42;;
64500;SDS011;50874;24.150;-110.320;2024-01-30T00:12:36;23.92;;;3.50;;
64500;SDS011;50874;24.150;-110.320;2024-01-30T00:15:03;19.45;;;2.83;;
64500;SDS011;50874;24.150;-110.320;2024-01-30T00:17:30;34.58;;;4.35;;
64500;SDS011;50874;24.150;-110.320;2024-01-30T00:19:56;22.15;;;3.47;;
64500;SDS011;50874;24.150;-110.320;2024-01-30T00:22:23;15.45;;;2.20;;
64500;SDS011;50874;24.150;-110.320;2024-01-30T00:24:49;22.85;;;3.20;;
64500;SDS011;50874;24.150;-110.320;2024-01-30T00:27:16;21.60;;;4.68;;
64500;SDS011;50874;24.150;-110.320;2024-01-30T00:29:42;27.92;;;3.30;;
64500;SDS011;50874;24.150;-110.320;2024-01-30T00:32:09;70.10;;;9.05;;
64500;SDS011;50874;24.150;-110.320;2024-01-30T00:34:35;26.80;;;3.80;;
64500;SDS011;50874;24.150;-110.320;2024-01-30T00:37:02;56.55;;;7.95;;
64500;SDS011;50874;24.150;-110.320;2024-01-30T00:39:28;95.55;;;13.30;;
64500;SDS011;50874;24.150;-110.320;2024-01-30T00:41:55;63.85;;;7.88;;
64500;SDS011;50874;24.150;-110.320;2024-01-30T00:44:21;36.22;;;5.07;;
64500;SDS011;50874;24.150;-110.320;2024-01-30T00:46:48;36.17;;;5.10;;
64500;SDS011;50874;24.150;-110.320;2024-01-30T00:49:14;29.08;;;3.85;;
64500;SDS011;50874;24.150;-110.320;2024-01-30T00:51:41;51.25;;;5.55;;
64500;SDS011;50874;24.150;-110.320;2024-01-30T00:54:07;27.73;;;3.95;;
64500;SDS011;50874;24.150;-110.320;2024-01-30T00:56:34;26.05;;;4.55;;
64500;SDS011;50874;24.150;-110.320;2024-01-30T00:59:00;22.88;;;4.20;;
64500;SDS011;50874;24.150;-110.320;2024-01-30T01:01:27;34.92;;;3.65;;
64500;SDS011;50874;24.150;-110.320;2024-01-30T01:03:53;37.97;;;4.50;;
64500;SDS011;50874;24.150;-110.320;2024-01-30T01:06:19;37.53;;;4.72;;
64500;SDS011;50874;24.150;-110.320;2024-01-30T01:08:46;32.45;;;5.03;;
64500;SDS011;50874;24.150;-110.320;2024-01-30T01:11:12;47.33;;;6.95;;
64500;SDS011;50874;24.150;-110.320;2024-01-30T01:13:39;32.08;;;4.57;;
64500;SDS011;50874;24.150;-110.320;2024-01-30T01:16:06;14.48;;;2.78;;
64500;SDS011;50874;24.150;-110.320;2024-01-30T01:18:32;22.38;;;3.13;;
64500;SDS011;50874;24.150;-110.320;2024-01-30T01:20:59;25.60;;;3.90;;
64500;SDS011;50874;24.150;-110.320;2024-01-30T01:23:26;33.95;;;5.97;;
64500;SDS011;50874;24.150;-110.320;2024-01-30T01:25:52;29.55;;;5.20;;
64500;SDS011;50874;24.150;-110.320;2024-01-30T01:28:19;45.75;;;7.20;;
64500;SDS011;50874;24.150;-110.320;2024-01-30T01:30:57;36.38;;;5.28;;
64500;SDS011;50874;24.150;-110.320;2024-01-30T01:33:33;35.45;;;3.95;;
64500;SDS011;50874;24.150;-110.320;2024-01-30T01:36:01;14.77;;;2.78;;
64500;SDS011;50874;24.150;-110.320;2024-01-30T01:38:28;37.88;;;5.20;;
64500;SDS011;50874;24.150;-110.320;2024-01-30T01:40:54;28.83;;;3.20;;
64500;SDS011;50874;24.150;-110.320;2024-01-30T01:43:21;23.30;;;3.50;;
64500;SDS011;50874;24.150;-110.320;2024-01-30T01:45:47;17.92;;;2.30;;
64500;SDS011;50874;24.150;-110.320;2024-01-30T01:48:14;51.45;;;5.63;;
64500;SDS011;50874;24.150;-110.320;2024-01-30T01:50:41;24.90;;;3.35;;
64500;SDS011;50874;24.150;-110.320;2024-01-30T01:53:08;81.50;;;8.82;;
64500;SDS011;50874;24.150;-110.320;2024-01-30T01:55:35;31.83;;;4.45;;
64500;SDS011;50874;24.150;-110.320;2024-01-30T01:58:02;42.22;;;5.82;;
64500;SDS011;50874;24.150;-110.320;2024-01-30T02:00:30;53.85;;;6.28;;
64500;SDS011;50874;24.150;-110.320;2024-01-30T02:02:57;48.33;;;5.88;;
64500;SDS011;50874;24.150;-110.320;2024-01-30T02:05:24;60.83;;;5.95;;
64500;SDS011;50874;24.150;-110.320;2024-01-30T02:07:51;52.15;;;6.45;;
64500;SDS011;50874;24.150;-110.320;2024-01-30T02:10:18;55.85;;;6.32;;
64500;SDS011;50874;24.150;-110.320;2024-01-30T02:12:44;57.28;;;7.10;;
64500;SDS011;50874;24.150;-110.320;2024-01-30T02:15:13;55.13;;;8.18;;
64500;SDS011;50874;24.150;-110.320;2024-01-30T02:17:39;96.22;;;9.85;;
64500;SDS011;50874;24.150;-110.320;2024-01-30T02:20:06;55.88;;;7.47;;
64500;SDS011;50874;24.150;-110.320;2024-01-30T02:22:34;39.92;;;5.38;;
64500;SDS011;50874;24.150;-110.320;2024-01-30T02:25:01;59.25;;;7.53;;
64500;SDS011;50874;24.150;-110.320;2024-01-30T02:27:28;70.50;;;7.90;;
64500;SDS011;50874;24.150;-110.320;2024-01-30T02:29:55;60.88;;;6.82;;
64500;SDS011;50874;24.150;-110.320;2024-01-30T02:32:21;71.03;;;9.60;;
64500;SDS011;50874;24.150;-110.320;2024-01-30T02:34:48;55.75;;;7.07;;
64500;SDS011;50874;24.150;-110.320;2024-01-30T02:37:14;55.80;;;6.43;;
64500;SDS011;50874;24.150;-110.320;2024-01-30T02:39:42;35.30;;;5.20;;
64500;SDS011;50874;24.150;-110.320;2024-01-30T02:42:08;37.35;;;3.13;;
64500;SDS011;50874;24.150;-110.320;2024-01-30T02:44:35;16.33;;;2.25;;
64500;SDS011;50874;24.150;-110.320;2024-01-30T02:47:01;17.30;;;2.40;;
64500;SDS011;50874;24.150;-110.320;2024-01-30T02:49:28;14.85;;;2.30;;
64500;SDS011;50874;24.150;-110.320;2024-01-30T02:51:54;11.75;;;2.33;;
64500;SDS011;50874;24.150;-110.320;2024-01-30T02:54:22;20.83;;;2.40;;
64500;SDS011;50874;24.150;-110.320;2024-01-30T02:56:48;18.60;;;3.30;;
64500;SDS011;50874;24.150;-110.320;2024-01-30T02:59:15;28.73;;;4.25;;
64500;SDS011;50874;24.150;-110.320;2024-01-30T03:01:44;22.23;;;4.15;;
64500;SDS011;50874;24.150;-110.320;2024-01-30T03:04:11;11.10;;;3.20;;
64500;SDS011;50874;24.150;-110.320;2024-01-30T03:06:38;10.90;;;2.80;;
64500;SDS011;50874;24.150;-110.320;2024-01-30T03:09:04;13.10;;;3.00;;
64500;SDS011;50874;24.150;-110.320;2024-01-30T03:11:31;57.08;;;8.77;;
64500;SDS011;50874;24.150;-110.320;2024-01-30T03:13:57;23.38;;;3.72;;
64500;SDS011;50874;24.150;-110.320;2024-01-30T03:16:24;30.65;;;5.60;;
64500;SDS011;50874;24.150;-110.320;2024-01-30T03:18:51;47.13;;;6.00;;
64500;SDS011;50874;24.150;-110.320;2024-01-30T03:21:18;38.83;;;4.47;;
64500;SDS011;50874;24.150;-110.320;2024-01-30T03:23:44;14.13;;;2.67;;
64500;SDS011;50874;24.150;-110.320;2024-01-30T03:26:10;22.60;;;3.30;;
64500;SDS011;50874;24.150;-110.320;2024-01-30T03:28:38;45.15;;;3.92;;
64500;SDS011;50874;24.150;-110.320;2024-01-30T03:31:04;19.23;;;3.17;;
64500;SDS011;50874;24.150;-110.320;2024-01-30T03:33:30;27.30;;;3.42;;
64500;SDS011;50874;24.150;-110.320;2024-01-30T03:35:57;35.50;;;5.40;;
64500;SDS011;50874;24.150;-110.320;2024-01-30T03:38:28;43.22;;;4.80;;
64500;SDS011;50874;24.150;-110.320;2024-01-30T03:40:54;24.58;;;3.35;;
64500;SDS011;50874;24.150;-110.320;2024-01-30T03:43:21;25.40;;;4.18;;
64500;SDS011;50874;24.150;-110.320;2024-01-30T03:45:47;16.92;;;3.17;;
64500;SDS011;50874;24.150;-110.320;2024-01-30T03:48:13;13.10;;;2.22;;
64500;SDS011;50874;24.150;-110.320;2024-01-30T03:50:40;19.15;;;3.85;;
64500;SDS011;50874;24.150;-110.320;2024-01-30T03:53:06;16.70;;;3.13;;
64500;SDS011;50874;24.150;-110.320;2024-01-30T03:55:33;18.85;;;3.38;;
64500;SDS011;50874;24.150;-110.320;2024-01-30T03:58:00;17.58;;;3.42;;
64500;SDS011;50874;24.150;-110.320;2024-01-30T04:00:26;18.23;;;2.85;;
64500;SDS011;50874;24.150;-110.320;2024-01-30T04:02:53;12.90;;;2.20;;
64500;SDS011;50874;24.150;-110.320;2024-01-30T04:05:19;10.55;;;2.00;;
64500;SDS011;50874;24.150;-110.320;2024-01-30T04:07:46;11.50;;;2.20;;
64500;SDS011;50874;24.150;-110.320;2024-01-30T04:10:12;18.88;;;3.00;;
64500;SDS011;50874;24.150;-110.320;2024-01-30T04:12:39;6.72;;;1.50;;
64500;SDS011;50874;24.150;-110.320;2024-01-30T04:15:05;42.50;;;5.13;;
64500;SDS011;50874;24.150;-110.320;2024-01-30T04:17:33;16.67;;;2.00;;
64500;SDS011;50874;24.150;-110.320;2024-01-30T04:19:59;12.75;;;1.77;;
64500;SDS011;50874;24.150;-110.320;2024-01-30T04:22:26;10.90;;;2.00;;
64500;SDS011;50874;24.150;-110.320;2024-01-30T04:24:52;29.33;;;2.95;;
64500;SDS011;50874;24.150;-110.320;2024-01-30T04:27:19;28.45;;;3.33;;
64500;SDS011;50874;24.150;-110.320;2024-01-30T04:32:14;20.13;;;3.00;;
64500;SDS011;50874;24.150;-110.320;2024-01-30T04:34:41;17.50;;;2.15;;
64500;SDS011;50874;24.150;-110.320;2024-01-30T04:37:07;11.85;;;2.13;;
64500;SDS011;50874;24.150;-110.320;2024-01-30T04:39:34;20.15;;;2.80;;
64500;SDS011;50874;24.150;-110.320;2024-01-30T04:42:00;29.83;;;3.28;;
64500;SDS011;50874;24.150;-110.320;2024-01-30T04:44:27;22.95;;;2.97;;
64500;SDS011;50874;24.150;-110.320;2024-01-30T04:46:53;35.47;;;3.28;;
64500;SDS011;50874;24.150;-110.320;2024-01-30T04:49:24;27.65;;;3.15;;
64500;SDS011;50874;24.150;-110.320;2024-01-30T04:51:50;27.30;;;2.83;;
64500;SDS011;50874;24.150;-110.320;2024-01-30T04:54:17;13.85;;;2.13;;
64500;SDS011;50874;24.150;-110.320;2024-01-30T04:56:43;11.55;;;2.22;;
64500;SDS011;50874;24.150;-110.320;2024-01-30T04:59:10;26.35;;;3.28;;
64500;SDS011;50874;24.150;-110.320;2024-01-30T05:01:37;31.80;;;4.10;;
64500;SDS011;50874;24.150;-110.320;2024-01-30T05:04:03;23.88;;;3.00;;
64500;SDS011;50874;24.150;-110.320;2024-01-30T05:06:33;14.77;;;1.92;;
64500;SDS011;50874;24.150;-110.320;2024-01-30T05:08:59;25.55;;;1.90;;
64500;SDS011;50874;24.150;-110.320;2024-01-30T05:11:26;8.77;;;1.50;;
64500;SDS011;50874;24.150;-110.320;2024-01-30T05:13:52;17.92;;;2.97;;
64500;SDS011;50874;24.150;-110.320;2024-01-30T05:16:19;27.17;;;4.30;;
64500;SDS011;50874;24.150;-110.320;2024-01-30T05:18:45;21.40;;;2.90;;
64500;SDS011;50874;24.150;-110.320;2024-01-30T05:21:12;15.60;;;2.83;;
64500;SDS011;50874;24.150;-110.320;2024-01-30T05:23:38;13.60;;;2.88;;
64500;SDS011;50874;24.150;-110.320;2024-01-30T05:26:07;79.05;;;7.10;;
64500;SDS011;50874;24.150;-110.320;2024-01-30T05:28:34;107.88;;;12.07;;
64500;SDS011;50874;24.150;-110.320;2024-01-30T05:31:01;42.10;;;5.05;;
64500;SDS011;50874;24.150;-110.320;2024-01-30T05:33:28;97.25;;;10.57;;
64500;SDS011;50874;24.150;-110.320;2024-01-30T05:35:54;54.08;;;5.25;;
64500;SDS011;50874;24.150;-110.320;2024-01-30T05:38:21;39.08;;;5.20;;
64500;SDS011;50874;24.150;-110.320;2024-01-30T05:40:47;33.20;;;3.85;;
64500;SDS011;50874;24.150;-110.320;2024-01-30T05:43:14;20.40;;;2.85;;
64500;SDS011;50874;24.150;-110.320;2024-01-30T05:45:40;13.82;;;2.85;;
64500;SDS011;50874;24.150;-110.320;2024-01-30T05:48:07;13.25;;;2.65;;
64500;SDS011;50874;24.150;-110.320;2024-01-30T05:50:33;15.93;;;2.45;;
64500;SDS011;50874;24.150;-110.320;2024-01-30T05:53:00;17.73;;;2.45;;
64500;SDS011;50874;24.150;-110.320;2024-01-30T05:55:26;21.02;;;1.30;;
64500;SDS011;50874;24.150;-110.320;2024-01-30T05:57:53;23.15;;;2.67;;
64500;SDS011;50874;24.150;-110.320;2024-01-30T06:00:19;13.25;;;1.10;;
64500;SDS011;50874;24.150;-110.320;2024-01-30T06:02:46;6.18;;;1.70;;
64500;SDS011;50874;24.150;-110.320;2024-01-30T06:05:12;7.35;;;1.63;;
64500;SDS011;50874;24.150;-110.320;2024-01-30T06:07:39;9.57;;;2.00;;
64500;SDS011;50874;24.150;-110.320;2024-01-30T06:10:07;9.90;;;1.73;;
64500;SDS011;50874;24.150;-110.320;2024-01-30T06:12:34;14.60;;;2.00;;
64500;SDS011;50874;24.150;-110.320;2024-01-30T06:15:01;6.85;;;1.65;;
64500;SDS011;50874;24.150;-110.320;2024-01-30T06:17:28;17.45;;;2.35;;
64500;SDS011;50874;24.150;-110.320;2024-01-30T06:19:54;19.63;;;3.55;;
64500;SDS011;50874;24.150;-110.320;2024-01-30T06:22:21;13.02;;;1.80;;
64500;SDS011;50874;24.150;-110.320;2024-01-30T06:24:47;12.13;;;1.63;;
64500;SDS011;50874;24.150;-110.320;2024-01-30T06:27:14;6.88;;;1.98;;
64500;SDS011;50874;24.150;-110.320;2024-01-30T06:29:42;10.32;;;1.73;;
64500;SDS011;50874;24.150;-110.320;2024-01-30T06:32:09;8.18;;;1.58;;
64500;SDS011;50874;24.150;-110.320;2024-01-30T06:34:35;19.38;;;3.20;;
64500;SDS011;50874;24.150;-110.320;2024-01-30T06:37:04;24.90;;;3.35;;
64500;SDS011;50874;24.150;-110.320;2024-01-30T06:39:30;29.25;;;3.42;;
64500;SDS011;50874;24.150;-110.320;2024-01-30T06:41:57;30.15;;;3.05;;
64500;SDS011;50874;24.150;-110.320;2024-01-30T06:44:23;23.00;;;3.47;;
64500;SDS011;50874;24.150;-110.320;2024-01-30T06:46:50;20.23;;;2.88;;
64500;SDS011;50874;24.150;-110.320;2024-01-30T06:49:16;17.10;;;3.03;;
64500;SDS011;50874;24.150;-110.320;2024-01-30T06:51:43;22.35;;;3.08;;
64500;SDS011;50874;24.150;-110.320;2024-01-30T06:54:09;20.50;;;3.50;;
64500;SDS011;50874;24.150;-110.320;2024-01-30T06:56:38;20.00;;;2.95;;
64500;SDS011;50874;24.150;-110.320;2024-01-30T06:59:05;15.55;;;2.45;;
64500;SDS011;50874;24.150;-110.320;2024-01-30T07:01:31;13.15;;;2.28;;
64500;SDS011;50874;24.150;-110.320;2024-01-30T07:03:58;16.05;;;2.22;;
64500;SDS011;50874;24.150;-110.320;2024-01-30T07:06:24;12.43;;;2.53;;
64500;SDS011;50874;24.150;-110.320;2024-01-30T07:08:51;26.60;;;2.97;;
64500;SDS011;50874;24.150;-110.320;2024-01-30T07:11:20;8.40;;;1.67;;
64500;SDS011;50874;24.150;-110.320;2024-01-30T07:13:50;9.18;;;1.58;;
64500;SDS011;50874;24.150;-110.320;2024-01-30T07:16:16;8.35;;;1.92;;
64500;SDS011;50874;24.150;-110.320;2024-01-30T07:18:43;13.25;;;1.83;;
64500;SDS011;50874;24.150;-110.320;2024-01-30T07:21:10;3.92;;;1.45;;
64500;SDS011;50874;24.150;-110.320;2024-01-30T07:23:37;6.63;;;1.35;;
64500;SDS011;50874;24.150;-110.320;2024-01-30T07:26:07;6.43;;;2.20;;
64500;SDS011;50874;24.150;-110.320;2024-01-30T07:28:34;4.88;;;1.77;;
64500;SDS011;50874;24.150;-110.320;2024-01-30T07:31:01;1.58;;;0.85;;
64500;SDS011;50874;24.150;-110.320;2024-01-30T07:33:28;1.92;;;0.85;;
64500;SDS011;50874;24.150;-110.320;2024-01-30T07:35:55;4.28;;;1.10;;
64500;SDS011;50874;24.150;-110.320;2024-01-30T07:38:21;17.52;;;2.47;;
64500;SDS011;50874;24.150;-110.320;2024-01-30T07:40:48;23.63;;;3.47;;
64500;SDS011;50874;24.150;-110.320;2024-01-30T07:43:15;8.65;;;1.10;;
64500;SDS011;50874;24.150;-110.320;2024-01-30T07:45:41;3.60;;;0.80;;
64500;SDS011;50874;24.150;-110.320;2024-01-30T07:48:08;6.38;;;1.25;;
64500;SDS011;50874;24.150;-110.320;2024-01-30T07:50:34;4.93;;;1.10;;
64500;SDS011;50874;24.150;-110.320;2024-01-30T07:53:01;3.83;;;0.90;;
64500;SDS011;50874;24.150;-110.320;2024-01-30T07:55:28;12.38;;;1.73;;
64500;SDS011;50874;24.150;-110.320;2024-01-30T07:57:56;1.42;;;0.73;;
64500;SDS011;50874;24.150;-110.320;2024-01-30T08:00:24;1.85;;;0.75;;
64500;SDS011;50874;24.150;-110.320;2024-01-30T08:02:50;3.78;;;1.00;;
64500;SDS011;50874;24.150;-110.320;2024-01-30T08:05:19;2.42;;;0.57;;
64500;SDS011;50874;24.150;-110.320;2024-01-30T08:07:48;2.05;;;0.82;;
64500;SDS011;50874;24.150;-110.320;2024-01-30T08:10:15;14.20;;;2.08;;
64500;SDS011;50874;24.150;-110.320;2024-01-30T08:12:44;10.23;;;1.42;;
64500;SDS011;50874;24.150;-110.320;2024-01-30T08:15:11;13.85;;;2.00;;
64500;SDS011;50874;24.150;-110.320;2024-01-30T08:17:38;10.60;;;1.40;;
64500;SDS011;50874;24.150;-110.320;2024-01-30T08:20:05;12.30;;;1.85;;
64500;SDS011;50874;24.150;-110.320;2024-01-30T08:22:33;5.25;;;1.17;;
64500;SDS011;50874;24.150;-110.320;2024-01-30T08:25:00;10.13;;;0.90;;
64500;SDS011;50874;24.150;-110.320;2024-01-30T08:27:26;8.65;;;1.33;;
64500;SDS011;50874;24.150;-110.320;2024-01-30T08:29:53;7.03;;;0.98;;
64500;SDS011;50874;24.150;-110.320;2024-01-30T08:32:19;4.03;;;1.20;;
64500;SDS011;50874;24.150;-110.320;2024-01-30T08:34:46;4.32;;;1.05;;
64500;SDS011;50874;24.150;-110.320;2024-01-30T08:37:12;4.57;;;0.85;;
64500;SDS011;50874;24.150;-110.320;2024-01-30T08:39:42;4.50;;;0.95;;
64500;SDS011;50874;24.150;-110.320;2024-01-30T08:42:09;4.47;;;0.63;;
64500;SDS011;50874;24.150;-110.320;2024-01-30T08:44:35;4.53;;;0.60;;
64500;SDS011;50874;24.150;-110.320;2024-01-30T08:47:02;3.95;;;0.80;;
64500;SDS011;50874;24.150;-110.320;2024-01-30T08:49:28;1.30;;;0.60;;
64500;SDS011;50874;24.150;-110.320;2024-01-30T08:51:55;7.75;;;0.73;;
64500;SDS011;50874;24.150;-110.320;2024-01-30T08:54:22;2.42;;;0.80;;
64500;SDS011;50874;24.150;-110.320;2024-01-30T08:56:49;2.35;;;0.77;;
64500;SDS011;50874;24.150;-110.320;2024-01-30T08:59:17;1.65;;;0.50;;
64500;SDS011;50874;24.150;-110.320;2024-01-30T09:01:44;1.98;;;0.40;;
64500;SDS011;50874;24.150;-110.320;2024-01-30T09:04:12;1.20;;;0.60;;
64500;SDS011;50874;24.150;-110.320;2024-01-30T09:06:38;1.42;;;0.40;;
64500;SDS011;50874;24.150;-110.320;2024-01-30T09:09:05;3.80;;;0.70;;
64500;SDS011;50874;24.150;-110.320;2024-01-30T09:11:31;0.77;;;0.63;;
64500;SDS011;50874;24.150;-110.320;2024-01-30T09:13:58;2.13;;;0.52;;
64500;SDS011;50874;24.150;-110.320;2024-01-30T09:16:24;4.75;;;0.60;;
64500;SDS011;50874;24.150;-110.320;2024-01-30T09:18:51;2.80;;;0.73;;
64500;SDS011;50874;24.150;-110.320;2024-01-30T09:21:17;5.15;;;0.60;;
64500;SDS011;50874;24.150;-110.320;2024-01-30T09:23:44;23.90;;;1.52;;
64500;SDS011;50874;24.150;-110.320;2024-01-30T09:26:10;7.88;;;1.23;;
64500;SDS011;50874;24.150;-110.320;2024-01-30T09:28:38;31.30;;;1.58;;
64500;SDS011;50874;24.150;-110.320;2024-01-30T09:31:09;8.10;;;1.20;;
64500;SDS011;50874;24.150;-110.320;2024-01-30T09:33:35;2.30;;;0.73;;
64500;SDS011;50874;24.150;-110.320;2024-01-30T09:36:02;5.30;;;1.00;;
64500;SDS011;50874;24.150;-110.320;2024-01-30T09:38:29;9.57;;;0.88;;
64500;SDS011;50874;24.150;-110.320;2024-01-30T09:40:55;4.22;;;1.00;;
64500;SDS011;50874;24.150;-110.320;2024-01-30T09:43:23;3.10;;;0.90;;
64500;SDS011;50874;24.150;-110.320;2024-01-30T09:45:51;4.93;;;0.77;;
64500;SDS011;50874;24.150;-110.320;2024-01-30T09:48:20;1.90;;;0.47;;
64500;SDS011;50874;24.150;-110.320;2024-01-30T09:50:48;2.10;;;0.73;;
64500;SDS011;50874;24.150;-110.320;2024-01-30T09:53:15;2.90;;;0.57;;
64500;SDS011;50874;24.150;-110.320;2024-01-30T09:55:43;1.33;;;0.40;;
64500;SDS011;50874;24.150;-110.320;2024-01-30T09:58:11;3.08;;;0.73;;
64500;SDS011;50874;24.150;-110.320;2024-01-30T10:00:38;3.60;;;0.60;;
64500;SDS011;50874;24.150;-110.320;2024-01-30T10:03:05;3.63;;;0.68;;
64500;SDS011;50874;24.150;-110.320;2024-01-30T10:05:31;3.22;;;0.77;;
64500;SDS011;50874;24.150;-110.320;2024-01-30T10:08:05;6.65;;;0.80;;
64500;SDS011;50874;24.150;-110.320;2024-01-30T10:10:35;1.60;;;0.60;;
64500;SDS011;50874;24.150;-110.320;2024-01-30T10:13:02;5.40;;;0.73;;
64500;SDS011;50874;24.150;-110.320;2024-01-30T10:15:29;2.20;;;0.32;;
64500;SDS011;50874;24.150;-110.320;2024-01-30T10:17:55;0.77;;;0.47;;
64500;SDS011;50874;24.150;-110.320;2024-01-30T10:20:22;2.50;;;0.77;;
64500;SDS011;50874;24.150;-110.320;2024-01-30T10:22:50;1.73;;;0.52;;
64500;SDS011;50874;24.150;-110.320;2024-01-30T10:25:17;1.08;;;0.38;;
64500;SDS011;50874;24.150;-110.320;2024-01-30T10:27:45;2.55;;;0.65;;
64500;SDS011;50874;24.150;-110.320;2024-01-30T10:30:11;1.15;;;0.30;;
64500;SDS011;50874;24.150;-110.320;2024-01-30T10:32:38;0.47;;;0.40;;
64500;SDS011;50874;24.150;-110.320;2024-01-30T10:35:05;3.20;;;0.40;;
64500;SDS011;50874;24.150;-110.320;2024-01-30T10:37:31;1.85;;;0.38;;
64500;SDS011;50874;24.150;-110.320;2024-01-30T10:39:59;0.95;;;0.40;;
64500;SDS011;50874;24.150;-110.320;2024-01-30T10:42:31;2.55;;;0.40;;
64500;SDS011;50874;24.150;-110.320;2024-01-30T10:45:08;4.18;;;0.47;;
64500;SDS011;50874;24.150;-110.320;2024-01-30T10:50:15;0.88;;;0.40;;
64500;SDS011;50874;24.150;-110.320;2024-01-30T10:52:42;1.00;;;0.30;;
64500;SDS011;50874;24.150;-110.320;2024-01-30T10:55:09;2.03;;;0.63;;
64500;SDS011;50874;24.150;-110.320;2024-01-30T10:57:36;1.75;;;0.55;;
64500;SDS011;50874;24.150;-110.320;2024-01-30T11:00:04;4.22;;;0.57;;
64500;SDS011;50874;24.150;-110.320;2024-01-30T11:02:38;0.47;;;0.20;;
64500;SDS011;50874;24.150;-110.320;2024-01-30T11:05:07;0.95;;;0.30;;
64500;SDS011;50874;24.150;-110.320;2024-01-30T11:07:34;1.65;;;0.40;;
64500;SDS011;50874;24.150;-110.320;2024-01-30T11:10:02;0.47;;;0.43;;
64500;SDS011;50874;24.150;-110.320;2024-01-30T11:12:30;3.30;;;0.52;;
64500;SDS011;50874;24.150;-110.320;2024-01-30T11:15:10;1.70;;;0.38;;
64500;SDS011;50874;24.150;-110.320;2024-01-30T11:17:44;0.98;;;0.45;;
64500;SDS011;50874;24.150;-110.320;2024-01-30T11:22:50;1.60;;;0.50;;
64500;SDS011;50874;24.150;-110.320;2024-01-30T11:25:19;0.40;;;0.40;;
64500;SDS011;50874;24.150;-110.320;2024-01-30T11:27:46;0.95;;;0.43;;
64500;SDS011;50874;24.150;-110.320;2024-01-30T11:30:25;2.88;;;0.45;;
64500;SDS011;50874;24.150;-110.320;2024-01-30T11:32:59;0.60;;;0.40;;
64500;SDS011;50874;24.150;-110.320;2024-01-30T11:35:36;1.40;;;0.70;;
64500;SDS011;50874;24.150;-110.320;2024-01-30T11:38:07;1.23;;;0.40;;
64500;SDS011;50874;24.150;-110.320;2024-01-30T11:40:36;3.95;;;0.47;;
64500;SDS011;50874;24.150;-110.320;2024-01-30T11:43:05;2.35;;;0.40;;
64500;SDS011;50874;24.150;-110.320;2024-01-30T11:45:32;2.90;;;0.70;;
64500;SDS011;50874;24.150;-110.320;2024-01-30T11:48:00;5.35;;;0.60;;
64500;SDS011;50874;24.150;-110.320;2024-01-30T11:50:29;2.83;;;0.68;;
64500;SDS011;50874;24.150;-110.320;2024-01-30T11:52:56;4.85;;;0.55;;
64500;SDS011;50874;24.150;-110.320;2024-01-30T11:55:23;0.73;;;0.30;;
64500;SDS011;50874;24.150;-110.320;2024-01-30T11:57:50;0.70;;;0.50;;
64500;SDS011;50874;24.150;-110.320;2024-01-30T12:00:17;3.63;;;0.43;;
64500;SDS011;50874;24.150;-110.320;2024-01-30T12:02:48;4.00;;;1.00;;
64500;SDS011;50874;24.150;-110.320;2024-01-30T12:05:22;3.85;;;0.50;;
64500;SDS011;50874;24.150;-110.320;2024-01-30T12:07:49;1.00;;;0.43;;
64500;SDS011;50874;24.150;-110.320;2024-01-30T12:10:16;1.98;;;0.68;;
64500;SDS011;50874;24.150;-110.320;2024-01-30T12:12:45;3.75;;;0.82;;
64500;SDS011;50874;24.150;-110.320;2024-01-30T12:15:13;8.27;;;0.55;;
64500;SDS011;50874;24.150;-110.320;2024-01-30T12:17:40;1.52;;;0.38;;
64500;SDS011;50874;24.150;-110.320;2024-01-30T12:20:08;6.70;;;0.68;;
64500;SDS011;50874;24.150;-110.320;2024-01-30T12:22:36;0.63;;;0.38;;
64500;SDS011;50874;24.150;-110.320;2024-01-30T12:25:10;3.95;;;0.88;;
64500;SDS011;50874;24.150;-110.320;2024-01-30T12:27:37;4.65;;;1.00;;
64500;SDS011;50874;24.150;-110.320;2024-01-30T12:30:08;3.45;;;0.90;;
64500;SDS011;50874;24.150;-110.320;2024-01-30T12:32:36;0.90;;;0.50;;
64500;SDS011;50874;24.150;-110.320;2024-01-30T12:35:10;1.15;;;0.55;;
64500;SDS011;50874;24.150;-110.320;2024-01-30T12:37:41;1.85;;;0.68;;
64500;SDS011;50874;24.150;-110.320;2024-01-30T12:40:09;0.90;;;0.50;;
64500;SDS011;50874;24.150;-110.320;2024-01-30T12:42:38;2.45;;;0.70;;
64500;SDS011;50874;24.150;-110.320;2024-01-30T12:45:05;5.28;;;0.60;;
64500;SDS011;50874;24.150;-110.320;2024-01-30T12:47:32;9.52;;;0.82;;
64500;SDS011;50874;24.150;-110.320;2024-01-30T12:49:58;3.08;;;0.77;;
64500;SDS011;50874;24.150;-110.320;2024-01-30T12:52:25;5.65;;;1.02;;
64500;SDS011;50874;24.150;-110.320;2024-01-30T12:54:52;7.63;;;1.25;;
64500;SDS011;50874;24.150;-110.320;2024-01-30T12:57:18;2.38;;;0.60;;
64500;SDS011;50874;24.150;-110.320;2024-01-30T12:59:45;6.68;;;0.85;;
64500;SDS011;50874;24.150;-110.320;2024-01-30T13:02:12;0.50;;;0.50;;
64500;SDS011;50874;24.150;-110.320;2024-01-30T13:04:40;4.35;;;1.05;;
64500;SDS011;50874;24.150;-110.320;2024-01-30T13:07:06;2.58;;;0.90;;
64500;SDS011;50874;24.150;-110.320;2024-01-30T13:09:33;4.13;;;1.52;;
64500;SDS011;50874;24.150;-110.320;2024-01-30T13:11:59;5.90;;;1.40;;
64500;SDS011;50874;24.150;-110.320;2024-01-30T13:14:26;5.90;;;1.55;;
64500;SDS011;50874;24.150;-110.320;2024-01-30T13:16:53;4.38;;;1.00;;
64500;SDS011;50874;24.150;-110.320;2024-01-30T13:19:19;2.05;;;1.30;;
64500;SDS011;50874;24.150;-110.320;2024-01-30T13:21:46;6.13;;;0.93;;
64500;SDS011;50874;24.150;-110.320;2024-01-30T13:24:13;2.28;;;1.02;;
64500;SDS011;50874;24.150;-110.320;2024-01-30T13:26:39;5.90;;;1.10;;
64500;SDS011;50874;24.150;-110.320;2024-01-30T13:29:07;3.17;;;1.45;;
64500;SDS011;50874;24.150;-110.320;2024-01-30T13:37:22;3.50;;;1.48;;
64500;SDS011;50874;24.150;-110.320;2024-01-30T13:39:49;3.75;;;1.38;;
64500;SDS011;50874;24.150;-110.320;2024-01-30T13:42:15;1.85;;;1.40;;
64500;SDS011;50874;24.150;-110.320;2024-01-30T13:44:42;3.67;;;1.40;;
64500;SDS011;50874;24.150;-110.320;2024-01-30T13:47:09;5.68;;;1.23;;
64500;SDS011;50874;24.150;-110.320;2024-01-30T13:49:36;5.40;;;1.75;;
64500;SDS011;50874;24.150;-110.320;2024-01-30T13:52:02;2.95;;;1.50;;
64500;SDS011;50874;24.150;-110.320;2024-01-30T13:54:29;3.83;;;1.27;;
64500;SDS011;50874;24.150;-110.320;2024-01-30T13:56:56;3.70;;;1.25;;
64500;SDS011;50874;24.150;-110.320;2024-01-30T13:59:24;8.57;;;1.52;;
64500;SDS011;50874;24.150;-110.320;2024-01-30T14:01:51;3.20;;;1.58;;
64500;SDS011;50874;24.150;-110.320;2024-01-30T14:04:18;3.97;;;1.52;;
64500;SDS011;50874;24.150;-110.320;2024-01-30T14:06:44;5.65;;;1.35;;
64500;SDS011;50874;24.150;-110.320;2024-01-30T14:09:11;4.40;;;1.60;;
64500;SDS011;50874;24.150;-110.320;2024-01-30T14:11:40;6.00;;;2.70;;
64500;SDS011;50874;24.150;-110.320;2024-01-30T14:14:08;8.32;;;2.15;;